Time;durP1;ratioP1;P1;durP2;ratioP2;P2;SDS_P1;SDS_P2;PMS_P1;PMS_P2;Temp;Humidity;BMP_temperature;BMP_pressure;BME280_temperature;BME280_humidity;BME280_pressure;Samples;Min_cycle;Max_cycle;Signal;HPM_P1;HPM_P2
2022/02/26 00:01:34;;;;;;;23.27;7.03;;;;;;;2.85;88.90;103183.28;5037979;28;20028;-72
2022/02/26 00:04:00;;;;;;;28.35;7.13;;;;;;;2.89;88.95;103188.16;5041451;28;20033;-71
2022/02/26 00:06:25;;;;;;;22.83;7.35;;;;;;;2.90;88.17;103191.53;5039362;28;20107;-69
2022/02/26 00:08:50;;;;;;;17.10;6.18;;;;;;;2.93;89.29;103181.16;5039647;28;20063;-69
2022/02/26 00:11:16;;;;;;;23.25;6.25;;;;;;;2.91;88.64;103183.00;5043322;28;20095;-73
2022/02/26 00:13:41;;;;;;;31.23;6.30;;;;;;;2.81;88.86;103181.78;5045036;28;20021;-71
2022/02/26 00:16:06;;;;;;;27.83;5.85;;;;;;;2.79;88.32;103188.69;5045458;28;20022;-70
2022/02/26 00:18:32;;;;;;;22.67;6.25;;;;;;;2.58;88.31;103200.81;5043973;28;20055;-71
2022/02/26 00:20:57;;;;;;;18.35;5.88;;;;;;;2.42;88.71;103205.84;5038345;28;20388;-71
2022/02/26 00:23:22;;;;;;;23.13;6.78;;;;;;;2.42;89.42;103211.78;5040402;28;20033;-70
2022/02/26 00:25:49;;;;;;;30.65;7.68;;;;;;;2.50;89.66;103208.81;5039377;28;20030;-70
2022/02/26 00:28:14;;;;;;;25.20;6.18;;;;;;;2.55;88.98;103216.28;5038170;28;20045;-70
2022/02/26 00:30:39;;;;;;;27.23;6.50;;;;;;;2.52;89.31;103217.25;5039202;28;20022;-71
2022/02/26 00:33:05;;;;;;;23.98;7.03;;;;;;;2.52;89.17;103219.81;5038822;28;20057;-70
2022/02/26 00:35:31;;;;;;;27.33;6.75;;;;;;;2.36;88.88;103221.44;5036575;28;20079;-70
2022/02/26 00:37:56;;;;;;;21.98;6.40;;;;;;;2.29;88.69;103220.09;5037779;28;20030;-69
2022/02/26 00:40:22;;;;;;;23.17;6.43;;;;;;;2.37;89.16;103216.25;5037268;28;20112;-70
2022/02/26 00:42:47;;;;;;;25.33;6.82;;;;;;;2.34;88.81;103218.16;5036499;28;20067;-71
2022/02/26 00:45:12;;;;;;;21.90;6.97;;;;;;;2.33;88.58;103221.56;5034726;28;20025;-70
2022/02/26 00:47:38;;;;;;;23.85;6.75;;;;;;;2.16;88.50;103233.44;5034550;28;20060;-71
2022/02/26 00:50:05;;;;;;;26.63;7.63;;;;;;;2.12;89.10;103225.97;5034399;28;20388;-71
2022/02/26 00:52:32;;;;;;;28.67;7.38;;;;;;;2.18;90.34;103229.06;5032766;28;20040;-70
2022/02/26 00:54:58;;;;;;;26.45;7.50;;;;;;;2.35;91.05;103232.53;5033678;28;20035;-71
2022/02/26 00:57:24;;;;;;;32.38;7.28;;;;;;;2.29;90.05;103228.56;5032460;28;20538;-71
2022/02/26 00:59:51;;;;;;;19.50;6.90;;;;;;;2.33;88.96;103227.53;5033641;28;20021;-73
2022/02/26 01:02:17;;;;;;;27.27;7.68;;;;;;;2.27;88.78;103232.91;5033564;28;20071;-70
2022/02/26 01:04:44;;;;;;;24.50;6.35;;;;;;;2.16;89.71;103235.16;5035506;28;20393;-71
2022/02/26 01:07:10;;;;;;;28.83;6.72;;;;;;;2.13;89.40;103237.81;5035498;28;20028;-71
2022/02/26 01:09:36;;;;;;;20.52;7.63;;;;;;;2.13;89.64;103242.91;5053256;28;20033;-71
2022/02/26 01:12:03;;;;;;;22.73;7.93;;;;;;;2.07;89.12;103243.22;5053374;28;20029;-71
2022/02/26 01:14:28;;;;;;;20.58;7.15;;;;;;;1.80;88.68;103248.69;5053211;28;20029;-72
2022/02/26 01:16:54;;;;;;;18.88;6.10;;;;;;;1.67;89.58;103262.84;5053244;28;20606;-71
2022/02/26 01:19:19;;;;;;;23.35;6.43;;;;;;;1.74;89.96;103254.88;5053283;28;20029;-70
2022/02/26 01:21:45;;;;;;;20.25;6.35;;;;;;;1.86;90.36;103243.28;5053143;28;20033;-71
2022/02/26 01:24:11;;;;;;;28.23;6.55;;;;;;;1.91;89.79;103253.31;5053074;28;20025;-70
2022/02/26 01:26:38;;;;;;;20.88;6.55;;;;;;;1.90;89.66;103256.72;5053123;28;20099;-71
2022/02/26 01:29:04;;;;;;;22.70;5.85;;;;;;;1.69;89.28;103254.25;5035111;28;20194;-71
2022/02/26 01:31:30;;;;;;;21.27;6.53;;;;;;;1.67;90.34;103258.63;5053034;28;20029;-71
2022/02/26 01:33:56;;;;;;;29.48;6.78;;;;;;;1.80;90.16;103262.25;5052774;28;20494;-71
2022/02/26 01:36:21;;;;;;;20.00;6.32;;;;;;;1.77;89.80;103264.94;5052808;28;20065;-70
2022/02/26 01:38:47;;;;;;;22.30;7.00;;;;;;;1.79;89.60;103263.16;5052927;28;20100;-69
2022/02/26 01:41:12;;;;;;;19.33;6.43;;;;;;;1.80;89.82;103259.69;5052723;28;20068;-69
2022/02/26 01:43:38;;;;;;;31.73;7.43;;;;;;;1.95;90.31;103262.47;5052961;28;20043;-71
2022/02/26 01:46:05;;;;;;;22.77;6.20;;;;;;;1.80;89.42;103254.59;5052843;28;20112;-70
2022/02/26 01:48:32;;;;;;;23.13;5.93;;;;;;;1.95;90.49;103242.06;5052816;28;20032;-70
2022/02/26 01:50:58;;;;;;;17.20;5.72;;;;;;;1.87;89.99;103244.97;5052729;28;20100;-71
2022/02/26 01:53:23;;;;;;;18.35;6.22;;;;;;;1.87;90.02;103252.63;5052625;28;20115;-70
2022/02/26 01:55:50;;;;;;;19.05;6.22;;;;;;;1.77;89.20;103239.44;5052621;28;20052;-70
2022/02/26 01:58:15;;;;;;;20.40;5.82;;;;;;;1.71;89.14;103236.34;5054763;28;20032;-71
2022/02/26 02:00:41;;;;;;;17.88;5.97;;;;;;;1.61;89.09;103225.72;5056496;28;20476;-71
2022/02/26 02:03:06;;;;;;;19.00;6.28;;;;;;;1.54;89.57;103230.28;5038534;28;20029;-71
2022/02/26 02:05:31;;;;;;;19.50;6.95;;;;;;;1.50;89.39;103223.66;5038396;28;20399;-71
2022/02/26 02:07:58;;;;;;;21.73;8.20;;;;;;;1.45;89.73;103228.13;5056592;28;20056;-70
2022/02/26 02:10:24;;;;;;;23.40;7.85;;;;;;;1.41;89.60;103230.88;5038347;28;20403;-71
2022/02/26 02:12:50;;;;;;;28.50;8.48;;;;;;;1.40;89.45;103235.16;5056430;28;20029;-76
2022/02/26 02:15:34;;;;;;;21.25;7.93;;;;;;;1.43;89.08;103226.53;5021975;28;20395;-75
2022/02/26 02:17:59;;;;;;;21.77;7.38;;;;;;;1.42;88.66;103233.38;5038447;28;20025;-75
2022/02/26 02:20:25;;;;;;;20.77;6.85;;;;;;;1.40;88.95;103231.78;5056371;28;20434;-75
2022/02/26 02:22:50;;;;;;;17.17;6.00;;;;;;;1.40;88.88;103234.31;5038290;28;20450;-75
2022/02/26 02:25:17;;;;;;;16.75;5.32;;;;;;;1.35;89.31;103226.88;5055943;28;20448;-75
2022/02/26 02:27:43;;;;;;;33.15;6.88;;;;;;;1.32;89.51;103222.75;5038157;28;20021;-75
2022/02/26 02:30:09;;;;;;;23.88;6.85;;;;;;;1.37;89.78;103225.09;5055907;28;20036;-75
2022/02/26 02:32:35;;;;;;;25.05;6.30;;;;;;;1.20;89.16;103222.44;5038176;28;20083;-75
2022/02/26 02:35:00;;;;;;;16.08;5.88;;;;;;;1.20;89.31;103232.63;5056006;28;20028;-75
2022/02/26 02:37:25;;;;;;;19.55;6.10;;;;;;;1.07;89.31;103230.63;5038091;28;20017;-75
2022/02/26 02:39:51;;;;;;;20.38;5.80;;;;;;;1.07;90.50;103225.53;5055889;28;20464;-75
2022/02/26 02:42:16;;;;;;;18.02;6.07;;;;;;;0.96;90.02;103209.03;5055706;28;20464;-76
2022/02/26 02:44:43;;;;;;;18.00;5.70;;;;;;;1.03;89.63;103233.34;5055904;28;20028;-74
2022/02/26 02:47:09;;;;;;;22.88;5.97;;;;;;;0.91;89.75;103239.78;5037839;28;20021;-74
2022/02/26 02:49:34;;;;;;;21.58;5.93;;;;;;;0.95;90.92;103233.69;5037810;28;20098;-75
2022/02/26 02:52:00;;;;;;;20.80;6.53;;;;;;;1.06;90.86;103235.75;5037589;28;20055;-75
2022/02/26 02:54:26;;;;;;;14.63;6.05;;;;;;;0.87;89.78;103218.72;5037641;28;20028;-75
2022/02/26 02:56:51;;;;;;;19.20;6.13;;;;;;;0.98;90.19;103237.78;5055466;28;20071;-75
2022/02/26 02:59:17;;;;;;;25.48;7.00;;;;;;;1.01;90.14;103248.69;5055486;28;20163;-75
2022/02/26 03:01:42;;;;;;;19.05;6.70;;;;;;;0.99;89.89;103242.84;5055492;28;20058;-75
2022/02/26 03:04:07;;;;;;;18.13;6.03;;;;;;;1.03;89.50;103259.63;5037508;28;20383;-74
2022/02/26 03:06:34;;;;;;;23.05;6.30;;;;;;;0.96;89.50;103259.97;5037391;28;20045;-76
2022/02/26 03:09:00;;;;;;;19.73;5.90;;;;;;;0.94;89.81;103262.56;5055096;28;20096;-75
2022/02/26 03:11:25;;;;;;;17.80;5.80;;;;;;;0.87;89.85;103259.44;5055353;28;20112;-75
2022/02/26 03:13:50;;;;;;;17.23;5.57;;;;;;;0.80;89.29;103254.66;5037348;28;20449;-75
2022/02/26 03:16:16;;;;;;;15.23;5.10;;;;;;;0.94;89.41;103266.84;5037188;28;20025;-75
2022/02/26 03:18:41;;;;;;;20.05;5.25;;;;;;;0.88;89.35;103270.47;5037297;28;20038;-74
2022/02/26 03:21:07;;;;;;;17.00;5.47;;;;;;;0.92;89.57;103276.25;5055310;28;20107;-74
2022/02/26 03:23:32;;;;;;;24.70;6.00;;;;;;;0.93;89.69;103281.28;5037223;28;20021;-75
2022/02/26 03:25:57;;;;;;;16.73;5.22;;;;;;;0.96;89.50;103282.88;5037020;28;20599;-75
2022/02/26 03:28:23;;;;;;;18.52;5.35;;;;;;;0.94;89.19;103287.19;5055322;28;20031;-75
2022/02/26 03:30:49;;;;;;;14.50;4.95;;;;;;;0.98;89.51;103288.72;5054997;28;20053;-75
2022/02/26 03:33:14;;;;;;;13.20;4.85;;;;;;;1.08;89.57;103285.75;5054974;28;20102;-76
2022/02/26 03:35:40;;;;;;;18.30;5.55;;;;;;;1.18;89.87;103291.31;5036951;28;20029;-75
2022/02/26 03:38:05;;;;;;;20.27;6.60;;;;;;;1.33;89.64;103303.38;5054714;28;20021;-75
2022/02/26 03:40:31;;;;;;;22.55;5.93;;;;;;;1.17;89.37;103307.44;5054642;28;20117;-75
2022/02/26 03:42:57;;;;;;;23.40;6.45;;;;;;;1.21;89.63;103311.53;5020265;28;20017;-75
2022/02/26 03:45:22;;;;;;;22.30;6.82;;;;;;;1.34;90.38;103312.66;5054673;28;20021;-75
2022/02/26 03:47:48;;;;;;;18.70;6.53;;;;;;;1.30;89.73;103321.34;5054472;28;20028;-75
2022/02/26 03:50:14;;;;;;;20.13;6.72;;;;;;;1.14;88.69;103325.41;5054404;28;20052;-75
2022/02/26 03:52:39;;;;;;;17.27;6.60;;;;;;;1.15;89.69;103327.06;5036514;28;20024;-75
2022/02/26 03:55:06;;;;;;;16.75;6.63;;;;;;;1.28;90.25;103333.31;5036427;28;20025;-75
2022/02/26 03:57:32;;;;;;;22.05;6.88;;;;;;;1.33;90.38;103335.69;5054327;28;20111;-75
2022/02/26 03:59:58;;;;;;;18.75;7.07;;;;;;;1.32;91.02;103324.66;5036359;28;20455;-75
2022/02/26 04:02:23;;;;;;;27.05;7.20;;;;;;;1.38;91.00;103332.94;5054276;28;20056;-75
2022/02/26 04:04:49;;;;;;;23.90;7.13;;;;;;;1.47;91.17;103340.22;5054137;28;20081;-76
2022/02/26 04:07:15;;;;;;;21.10;6.78;;;;;;;1.49;90.90;103334.13;5054140;28;20028;-75
2022/02/26 04:09:40;;;;;;;25.70;7.03;;;;;;;1.56;91.46;103329.63;5036239;28;20044;-75
2022/02/26 04:12:07;;;;;;;21.15;6.43;;;;;;;1.66;91.80;103325.75;5036119;28;20032;-75
2022/02/26 04:14:33;;;;;;;21.58;6.85;;;;;;;1.60;90.89;103333.69;5054074;28;20036;-75
2022/02/26 04:16:58;;;;;;;15.07;6.40;;;;;;;1.55;89.87;103340.69;5054188;28;20017;-76
2022/02/26 04:19:23;;;;;;;20.60;6.35;;;;;;;1.44;89.93;103340.31;5053913;28;20083;-74
2022/02/26 04:21:49;;;;;;;22.70;5.93;;;;;;;1.27;89.58;103343.59;5035425;28;20024;-74
2022/02/26 04:24:15;;;;;;;18.15;6.18;;;;;;;1.25;90.09;103337.72;5053842;28;20021;-74
2022/02/26 04:26:40;;;;;;;20.00;5.63;;;;;;;1.22;89.41;103348.03;5035932;28;20025;-74
2022/02/26 04:29:05;;;;;;;19.02;5.93;;;;;;;1.28;90.44;103345.22;5053768;28;20025;-75
2022/02/26 04:31:31;;;;;;;16.80;5.55;;;;;;;1.28;89.93;103345.22;5053737;28;20517;-75
2022/02/26 04:33:56;;;;;;;14.68;5.50;;;;;;;1.34;90.69;103345.78;5053547;28;20025;-75
2022/02/26 04:36:22;;;;;;;19.92;5.65;;;;;;;1.38;91.66;103350.75;5053549;28;20099;-75
2022/02/26 04:38:47;;;;;;;17.55;5.65;;;;;;;1.45;92.19;103349.63;5035804;28;20074;-75
2022/02/26 04:41:13;;;;;;;21.55;5.50;;;;;;;1.56;92.36;103352.56;5035484;28;20377;-75
2022/02/26 04:43:42;;;;;;;18.73;5.88;;;;;;;1.47;91.63;103366.50;5053589;28;20025;-75
2022/02/26 04:46:07;;;;;;;16.30;5.72;;;;;;;1.31;91.89;103357.84;5053519;28;20020;-76
2022/02/26 04:48:33;;;;;;;16.73;5.60;;;;;;;1.27;91.89;103352.06;5053359;28;20100;-75
2022/02/26 04:50:59;;;;;;;22.38;5.78;;;;;;;1.34;92.40;103363.63;5053449;28;20103;-75
2022/02/26 04:53:24;;;;;;;14.57;5.85;;;;;;;1.23;91.87;103360.69;5035420;28;20163;-75
2022/02/26 04:55:50;;;;;;;22.20;5.75;;;;;;;1.35;92.35;103362.75;5053294;28;20066;-75
2022/02/26 04:58:18;;;;;;;27.40;6.07;;;;;;;1.44;92.02;103373.44;5053306;28;20062;-75
2022/02/26 05:00:43;;;;;;;17.75;5.70;;;;;;;1.34;91.91;103365.34;5053330;28;20111;-74
2022/02/26 05:03:09;;;;;;;16.05;6.13;;;;;;;1.29;91.71;103372.34;5053250;28;20425;-75
2022/02/26 05:05:34;;;;;;;23.55;5.90;;;;;;;1.18;91.64;103369.41;5035200;28;20053;-74
2022/02/26 05:08:00;;;;;;;22.45;7.07;;;;;;;1.19;92.30;103374.47;5035280;28;20032;-74
2022/02/26 05:10:25;;;;;;;18.30;6.38;;;;;;;1.24;92.08;103382.75;5053438;28;20051;-74
2022/02/26 05:12:50;;;;;;;19.98;6.72;;;;;;;1.31;92.60;103384.13;5035247;28;20032;-75
2022/02/26 05:15:16;;;;;;;21.35;6.85;;;;;;;1.34;91.82;103370.44;5035241;28;20021;-75
2022/02/26 05:17:42;;;;;;;30.20;6.75;;;;;;;1.35;91.71;103369.53;5053092;28;20111;-75
2022/02/26 05:20:09;;;;;;;22.63;6.70;;;;;;;1.34;91.38;103375.53;5035147;28;20024;-76
2022/02/26 05:22:35;;;;;;;16.90;6.45;;;;;;;1.18;91.53;103380.44;5034815;28;20033;-75
2022/02/26 05:25:03;;;;;;;20.85;6.47;;;;;;;1.02;90.64;103387.84;5052979;28;20055;-75
2022/02/26 05:27:28;;;;;;;20.05;6.30;;;;;;;1.07;91.46;103385.16;5053117;28;20587;-75
2022/02/26 05:29:54;;;;;;;25.08;6.95;;;;;;;1.12;92.10;103389.16;5035016;28;20056;-74
2022/02/26 05:32:19;;;;;;;26.73;7.13;;;;;;;1.03;91.51;103391.22;5037396;28;20021;-75
2022/02/26 05:34:44;;;;;;;22.17;6.60;;;;;;;0.90;91.68;103379.00;5039181;28;20450;-75
2022/02/26 05:37:09;;;;;;;18.92;7.10;;;;;;;1.01;92.09;103385.38;5039062;28;20078;-75
2022/02/26 05:39:35;;;;;;;19.05;6.63;;;;;;;1.06;91.83;103397.03;5057003;28;20476;-75
2022/02/26 05:42:00;;;;;;;18.88;6.40;;;;;;;0.83;91.53;103387.75;5057539;28;20024;-75
2022/02/26 05:44:25;;;;;;;19.25;6.65;;;;;;;0.85;91.79;103393.59;5056932;28;20435;-75
2022/02/26 05:46:51;;;;;;;21.77;6.40;;;;;;;0.83;91.09;103397.09;5056990;28;20472;-76
2022/02/26 05:49:18;;;;;;;17.60;6.50;;;;;;;0.77;90.91;103412.59;5056801;28;20029;-75
2022/02/26 05:51:44;;;;;;;19.42;6.32;;;;;;;0.75;91.01;103416.91;5056758;28;20108;-75
2022/02/26 05:54:09;;;;;;;18.65;7.32;;;;;;;0.85;91.08;103411.44;5038638;28;20175;-75
2022/02/26 05:56:34;;;;;;;19.17;7.13;;;;;;;0.95;91.42;103422.09;5056757;28;20036;-75
2022/02/26 05:58:59;;;;;;;18.73;6.80;;;;;;;0.89;90.32;103419.78;5038769;28;20025;-75
2022/02/26 06:01:25;;;;;;;23.20;6.63;;;;;;;0.78;90.75;103420.19;5056653;28;20112;-75
2022/02/26 06:03:50;;;;;;;21.13;6.95;;;;;;;0.74;90.49;103422.91;5038585;28;20476;-74
2022/02/26 06:06:15;;;;;;;26.33;9.88;;;;;;;0.75;90.26;103442.38;5040460;28;20507;-74
2022/02/26 06:08:40;;;;;;;22.55;9.23;;;;;;;0.70;89.35;103441.75;5056542;28;20029;-74
2022/02/26 06:11:06;;;;;;;22.63;7.75;;;;;;;0.60;89.69;103433.59;5069833;28;20047;-76
2022/02/26 06:13:31;;;;;;;23.58;7.90;;;;;;;0.63;89.94;103436.88;5064030;28;20060;-75
2022/02/26 06:15:56;;;;;;;19.05;7.38;;;;;;;0.63;89.79;103451.28;5055389;28;20052;-75
2022/02/26 06:18:23;;;;;;;23.73;7.60;;;;;;;0.55;89.24;103451.59;5056006;28;20066;-75
2022/02/26 06:20:48;;;;;;;24.25;7.00;;;;;;;0.59;89.68;103448.03;5055271;28;20051;-75
2022/02/26 06:23:14;;;;;;;20.08;6.88;;;;;;;0.65;89.63;103442.72;5038177;28;20021;-75
2022/02/26 06:25:39;;;;;;;17.42;7.35;;;;;;;0.64;89.94;103443.63;5038174;28;20029;-75
2022/02/26 06:28:04;;;;;;;24.05;7.40;;;;;;;0.68;90.09;103451.97;5037718;28;20515;-75
2022/02/26 06:30:30;;;;;;;21.55;7.28;;;;;;;0.63;89.45;103449.59;5047166;28;20025;-74
2022/02/26 06:32:55;;;;;;;24.50;7.40;;;;;;;0.67;90.07;103455.41;5072870;28;20045;-77
2022/02/26 06:35:20;;;;;;;17.80;6.85;;;;;;;0.63;89.30;103466.56;5057479;28;20025;-75
2022/02/26 06:37:46;;;;;;;16.13;6.60;;;;;;;0.58;89.07;103460.84;5056005;28;20048;-75
2022/02/26 06:40:11;;;;;;;20.08;7.80;;;;;;;0.67;89.47;103468.97;5055424;28;20029;-74
2022/02/26 06:42:36;;;;;;;22.95;7.20;;;;;;;0.63;89.30;103452.16;5042141;28;20021;-77
2022/02/26 06:45:05;;;;;;;20.08;7.25;;;;;;;0.53;89.75;103450.00;5075584;28;20005;-77
2022/02/26 06:47:31;;;;;;;17.90;7.72;;;;;;;0.86;90.05;103469.13;5053510;28;20025;-75
2022/02/26 06:49:56;;;;;;;25.65;10.00;;;;;;;1.04;90.30;103465.03;5067610;28;20082;-75
2022/02/26 06:52:21;;;;;;;19.73;8.80;;;;;;;1.05;89.76;103471.78;5036521;28;20025;-75
2022/02/26 06:54:47;;;;;;;23.48;9.38;;;;;;;0.94;89.82;103453.53;5037375;28;20044;-75
2022/02/26 06:57:12;;;;;;;23.10;8.43;;;;;;;1.04;89.50;103464.22;5070436;28;20104;-76
2022/02/26 06:59:38;;;;;;;25.58;9.40;;;;;;;1.02;90.09;103478.72;5053720;28;20029;-75
2022/02/26 07:02:04;;;;;;;22.65;8.10;;;;;;;1.17;90.22;103475.56;5044603;28;20164;-75
2022/02/26 07:04:29;;;;;;;23.63;8.77;;;;;;;1.27;89.93;103476.88;5042477;28;20399;-74
2022/02/26 07:06:54;;;;;;;21.73;8.07;;;;;;;1.29;89.45;103475.09;5037677;28;20506;-75
2022/02/26 07:09:27;;;;;;;28.90;9.07;;;;;;;1.21;88.94;103473.72;5058520;28;20029;-78
2022/02/26 07:11:52;;;;;;;19.80;8.60;;;;;;;1.17;88.58;103480.66;5045546;28;20476;-74
2022/02/26 07:14:17;;;;;;;22.27;8.48;;;;;;;1.28;89.42;103475.97;5062126;28;20036;-77
2022/02/26 07:16:43;;;;;;;26.05;9.35;;;;;;;1.38;89.17;103475.63;5038711;28;20029;-75
2022/02/26 07:19:08;;;;;;;24.80;9.10;;;;;;;1.46;89.54;103473.59;5055785;28;20067;-75
2022/02/26 07:21:36;;;;;;;24.00;8.63;;;;;;;1.52;89.10;103479.25;5055803;28;20472;-75
2022/02/26 07:24:02;;;;;;;20.50;8.75;;;;;;;1.57;88.76;103474.81;5057199;28;20487;-75
2022/02/26 07:26:28;;;;;;;19.50;8.75;;;;;;;1.56;88.26;103482.53;5060972;28;20369;-75
2022/02/26 07:28:54;;;;;;;28.17;9.13;;;;;;;1.59;88.33;103484.97;5038639;28;20025;-75
2022/02/26 07:31:20;;;;;;;16.95;7.60;;;;;;;1.55;87.91;103483.41;5042689;28;20032;-76
2022/02/26 07:33:46;;;;;;;17.45;9.13;;;;;;;1.64;88.17;103489.84;5059009;28;20036;-76
2022/02/26 07:36:12;;;;;;;22.02;8.50;;;;;;;2.06;87.61;103482.16;5056022;28;20025;-74
2022/02/26 07:38:38;;;;;;;19.05;8.35;;;;;;;2.94;83.98;103489.38;5052770;28;20075;-74
2022/02/26 07:41:06;;;;;;;20.50;7.95;;;;;;;4.94;77.91;103488.66;5055529;28;20475;-75
2022/02/26 07:43:32;;;;;;;14.65;6.97;;;;;;;6.21;71.84;103495.19;5036856;28;20369;-75
2022/02/26 07:45:58;;;;;;;18.20;7.25;;;;;;;6.56;69.15;103493.06;5054746;28;20146;-75
2022/02/26 07:48:23;;;;;;;23.50;7.35;;;;;;;7.37;67.67;103484.56;5037679;28;20025;-75
2022/02/26 07:50:49;;;;;;;16.88;6.90;;;;;;;8.16;64.53;103495.63;5055598;28;20047;-76
2022/02/26 07:53:14;;;;;;;21.10;7.13;;;;;;;7.76;64.14;103498.28;5055102;28;20025;-75
2022/02/26 07:55:40;;;;;;;21.08;7.38;;;;;;;8.41;62.84;103500.75;5053613;28;20096;-76
2022/02/26 07:58:06;;;;;;;14.85;6.75;;;;;;;9.15;61.28;103490.38;5054437;28;20025;-75
2022/02/26 08:00:32;;;;;;;19.27;7.40;;;;;;;10.08;57.13;103487.78;5054420;28;20036;-75
2022/02/26 08:03:04;;;;;;;16.52;6.72;;;;;;;10.28;57.57;103494.84;5054285;28;20013;-75
2022/02/26 08:05:29;;;;;;;19.75;6.40;;;;;;;10.03;57.78;103498.47;5036034;28;20049;-75
2022/02/26 08:07:55;;;;;;;16.05;6.20;;;;;;;10.26;57.97;103476.00;5054224;28;20036;-76
2022/02/26 08:10:22;;;;;;;16.50;6.72;;;;;;;11.51;53.80;103498.81;5054295;28;20106;-76
2022/02/26 08:12:49;;;;;;;18.23;7.00;;;;;;;11.35;54.46;103502.78;5056937;28;20055;-76
2022/02/26 08:15:14;;;;;;;16.95;6.50;;;;;;;12.00;52.95;103500.84;5019752;28;20511;-76
2022/02/26 08:17:43;;;;;;;16.95;6.28;;;;;;;12.25;51.79;103503.00;5036867;28;20021;-75
2022/02/26 08:20:09;;;;;;;18.80;6.47;;;;;;;12.76;51.82;103503.81;5054166;28;20495;-76
2022/02/26 08:22:34;;;;;;;14.35;6.10;;;;;;;12.80;52.34;103508.63;5053916;28;20017;-75
2022/02/26 08:24:59;;;;;;;12.82;5.80;;;;;;;13.21;51.06;103509.28;5035996;28;20111;-76
2022/02/26 08:27:24;;;;;;;17.13;6.55;;;;;;;13.40;50.02;103512.84;5035977;28;20522;-76
2022/02/26 08:29:50;;;;;;;13.32;5.90;;;;;;;13.23;50.29;103498.75;5053921;28;20039;-76
2022/02/26 08:32:15;;;;;;;14.93;6.03;;;;;;;13.53;50.16;103511.59;5053688;28;20036;-77
2022/02/26 08:34:40;;;;;;;15.77;5.32;;;;;;;13.22;50.10;103508.31;5054352;28;20064;-77
2022/02/26 08:37:06;;;;;;;15.50;6.72;;;;;;;13.14;50.26;103507.38;5053198;28;20491;-76
2022/02/26 08:39:31;;;;;;;18.30;5.82;;;;;;;13.67;49.65;103507.75;5033772;28;20025;-76
2022/02/26 08:41:57;;;;;;;20.90;5.43;;;;;;;14.07;49.27;103509.25;5033736;28;20048;-77
2022/02/26 08:44:22;;;;;;;19.30;5.38;;;;;;;14.15;48.84;103516.31;5051792;28;20017;-77
2022/02/26 08:46:48;;;;;;;11.48;4.82;;;;;;;14.89;45.89;103510.16;5033772;28;20044;-76
2022/02/26 08:49:13;;;;;;;11.38;4.35;;;;;;;15.21;45.61;103520.03;5033625;28;20056;-76
2022/02/26 08:51:39;;;;;;;15.10;4.70;;;;;;;15.42;45.02;103511.06;5050351;28;20407;-77
2022/02/26 08:54:04;;;;;;;13.95;4.50;;;;;;;15.48;45.08;103507.88;5032198;28;20082;-76
2022/02/26 08:56:30;;;;;;;14.15;4.80;;;;;;;15.72;44.78;103513.22;5032136;28;20056;-77
2022/02/26 08:58:55;;;;;;;14.93;4.68;;;;;;;15.84;43.71;103505.97;5032636;28;20472;-77
2022/02/26 09:01:21;;;;;;;14.63;4.53;;;;;;;16.19;43.94;103501.53;5050813;28;20028;-73
2022/02/26 09:03:46;;;;;;;16.10;4.82;;;;;;;16.42;42.88;103499.97;5050701;28;20104;-71
2022/02/26 09:06:12;;;;;;;13.57;5.20;;;;;;;16.79;42.41;103497.94;5051259;28;20412;-72
2022/02/26 09:08:38;;;;;;;18.27;5.22;;;;;;;16.97;41.37;103503.00;5034986;28;20032;-72
2022/02/26 09:11:06;;;;;;;15.52;4.88;;;;;;;16.98;41.90;103502.06;5034928;28;20021;-73
2022/02/26 09:13:33;;;;;;;17.77;5.35;;;;;;;18.13;40.35;103497.41;5034836;28;20028;-72
2022/02/26 09:15:58;;;;;;;14.73;5.68;;;;;;;17.66;41.06;103496.38;5035130;28;20106;-72
2022/02/26 09:18:23;;;;;;;14.35;5.43;;;;;;;18.21;40.48;103503.41;5035234;28;20021;-71
2022/02/26 09:20:48;;;;;;;17.23;6.10;;;;;;;17.72;40.13;103510.56;5053243;28;20121;-71
2022/02/26 09:23:14;;;;;;;18.08;6.47;;;;;;;17.73;40.62;103507.81;5052980;28;20024;-72
2022/02/26 09:25:39;;;;;;;17.75;6.20;;;;;;;17.38;41.84;103516.88;5035114;28;20021;-72
2022/02/26 09:28:04;;;;;;;18.37;6.73;;;;;;;16.80;41.66;103518.69;5034913;28;20032;-72
2022/02/26 09:30:30;;;;;;;13.48;6.15;;;;;;;16.92;41.93;103527.03;5034991;28;20638;-71
2022/02/26 09:32:56;;;;;;;16.02;6.00;;;;;;;16.83;41.72;103520.13;5052808;28;20097;-72
2022/02/26 09:35:21;;;;;;;16.92;6.43;;;;;;;16.54;42.74;103521.38;5052775;28;20021;-72
2022/02/26 09:37:48;;;;;;;17.90;5.40;;;;;;;17.17;41.88;103537.47;5052846;28;20480;-72
2022/02/26 09:40:13;;;;;;;16.70;5.43;;;;;;;18.13;39.73;103527.00;5052605;28;20029;-72
2022/02/26 09:42:39;;;;;;;19.65;5.80;;;;;;;18.68;38.26;103531.25;5053431;28;20051;-73
2022/02/26 09:45:05;;;;;;;15.73;5.47;;;;;;;19.60;37.60;103509.34;5034999;28;20066;-73
2022/02/26 09:47:31;;;;;;;16.00;4.57;;;;;;;18.57;38.57;103510.69;5034625;28;20075;-73
2022/02/26 09:49:56;;;;;;;13.30;5.13;;;;;;;20.33;35.69;103514.69;5034974;28;20452;-73
2022/02/26 09:52:25;;;;;;;17.00;5.10;;;;;;;21.24;32.94;103507.84;5033818;28;20128;-73
2022/02/26 09:54:51;;;;;;;15.85;4.82;;;;;;;19.90;34.63;103520.66;5049447;28;20029;-72
2022/02/26 09:57:18;;;;;;;14.68;4.90;;;;;;;19.76;34.70;103506.53;5016364;28;20025;-73
2022/02/26 09:59:46;;;;;;;15.23;4.63;;;;;;;20.86;33.25;103495.03;5049244;28;20025;-73
2022/02/26 10:02:12;;;;;;;12.23;4.07;;;;;;;20.86;34.19;103504.69;5050675;28;20065;-73
2022/02/26 10:04:39;;;;;;;16.33;4.80;;;;;;;21.08;33.16;103503.66;5050539;28;20024;-73
2022/02/26 10:07:17;;;;;;;13.65;5.10;;;;;;;21.82;31.50;103508.38;5051427;28;20052;-71
2022/02/26 10:09:47;;;;;;;13.77;4.43;;;;;;;21.48;31.81;103508.41;5034676;28;20098;-74
2022/02/26 10:12:22;;;;;;;13.75;4.22;;;;;;;20.87;32.43;103509.78;5032704;28;20111;-72
2022/02/26 10:14:48;;;;;;;14.88;4.45;;;;;;;20.86;33.01;103484.50;5032663;28;20414;-74
2022/02/26 10:17:48;;;;;;;12.68;4.10;;;;;;;20.60;32.81;103503.50;5051382;28;20028;-72
2022/02/26 10:20:16;;;;;;;11.50;3.97;;;;;;;21.66;31.66;103508.69;5003942;28;20480;-73
2022/02/26 10:22:50;;;;;;;14.50;4.53;;;;;;;20.45;32.07;103502.69;5036363;28;20024;-73
2022/02/26 10:25:19;;;;;;;12.60;4.57;;;;;;;19.14;34.00;103502.44;5036107;28;20032;-73
2022/02/26 10:27:47;;;;;;;15.25;4.65;;;;;;;20.60;32.80;103502.66;5053813;28;20074;-73
2022/02/26 10:30:20;;;;;;;15.30;4.90;;;;;;;21.09;32.00;103505.31;5034799;28;20047;-73
2022/02/26 10:33:02;;;;;;;;;;;;;;;19.34;32.97;103504.53;5035663;28;20527;-71
2022/02/26 10:35:45;;;;;;;14.50;4.30;;;;;;;20.98;30.83;103508.47;5054867;28;20394;-73
2022/02/26 10:38:32;;;;;;;15.23;3.67;;;;;;;20.33;31.84;103517.31;5037748;28;20060;-71
2022/02/26 10:41:06;;;;;;;15.30;3.90;;;;;;;19.68;32.61;103514.53;5055886;28;20028;-71
2022/02/26 10:43:53;;;;;;;11.90;3.78;;;;;;;20.37;31.68;103514.16;5038071;28;20025;-72
2022/02/26 10:46:33;;;;;;;12.60;3.20;;;;;;;18.87;32.78;103524.78;5037828;28;20028;-71
2022/02/26 10:49:09;;;;;;;10.23;3.50;;;;;;;18.66;34.39;103507.03;5036846;28;20044;-71
2022/02/26 10:51:37;;;;;;;11.75;3.65;;;;;;;16.16;37.33;103501.84;5020795;28;20033;-71
2022/02/26 10:54:05;;;;;;;14.00;3.58;;;;;;;13.98;43.13;103499.69;5055773;28;20423;-71
2022/02/26 10:56:42;;;;;;;13.50;3.67;;;;;;;12.59;47.42;103492.31;5036224;28;20472;-70
2022/02/26 10:59:09;;;;;;;9.48;3.10;;;;;;;12.53;46.00;103495.44;5053784;28;20028;-71
2022/02/26 11:01:36;;;;;;;14.02;3.20;;;;;;;12.53;46.89;103501.44;5054128;28;20029;-71
2022/02/26 11:04:02;;;;;;;9.38;3.28;;;;;;;13.40;45.69;103502.47;5055311;28;20476;-71
2022/02/26 11:06:29;;;;;;;12.85;3.55;;;;;;;13.65;47.22;103498.44;5037241;28;20128;-71
2022/02/26 11:08:55;;;;;;;13.18;3.35;;;;;;;12.73;48.31;103501.50;5055311;28;20104;-71
2022/02/26 11:11:25;;;;;;;8.80;2.75;;;;;;;12.08;48.83;103499.25;5037430;28;20604;-71
2022/02/26 11:13:53;;;;;;;9.77;3.15;;;;;;;12.30;47.89;103484.47;5037048;28;20029;-71
2022/02/26 11:16:21;;;;;;;11.35;2.83;;;;;;;13.01;49.54;103503.28;5055121;28;20025;-69
2022/02/26 11:18:48;;;;;;;15.02;3.53;;;;;;;12.93;46.74;103492.75;5055065;28;20486;-70
2022/02/26 11:21:17;;;;;;;12.45;3.30;;;;;;;13.14;46.41;103495.22;5054083;28;20020;-71